sensor_id;sensor_type;location;lat;lon;timestamp;P1;durP1;ratioP1;P2;durP2;ratioP2
39772;SDS011;25451;51.960;6.250;2023-10-09T00:00:50;12.43;;;5.27;;
39772;SDS011;25451;51.960;6.250;2023-10-09T00:03:18;9.48;;;4.53;;
39772;SDS011;25451;51.960;6.250;2023-10-09T00:05:47;11.20;;;4.72;;
39772;SDS011;25451;51.960;6.250;2023-10-09T00:08:13;10.63;;;4.80;;
39772;SDS011;25451;51.960;6.250;2023-10-09T00:10:44;12.05;;;5.32;;
39772;SDS011;25451;51.960;6.250;2023-10-09T00:13:20;15.73;;;5.65;;
39772;SDS011;25451;51.960;6.250;2023-10-09T00:15:51;12.10;;;5.30;;
39772;SDS011;25451;51.960;6.250;2023-10-09T00:18:18;14.98;;;5.95;;
39772;SDS011;25451;51.960;6.250;2023-10-09T00:20:53;16.00;;;6.13;;
39772;SDS011;25451;51.960;6.250;2023-10-09T00:23:20;13.38;;;5.82;;
39772;SDS011;25451;51.960;6.250;2023-10-09T00:25:50;12.82;;;5.65;;
39772;SDS011;25451;51.960;6.250;2023-10-09T00:28:35;11.50;;;4.87;;
39772;SDS011;25451;51.960;6.250;2023-10-09T00:31:05;15.95;;;6.53;;
39772;SDS011;25451;51.960;6.250;2023-10-09T00:33:33;18.15;;;6.72;;
39772;SDS011;25451;51.960;6.250;2023-10-09T00:36:04;13.00;;;5.82;;
39772;SDS011;25451;51.960;6.250;2023-10-09T00:38:39;14.15;;;6.25;;
39772;SDS011;25451;51.960;6.250;2023-10-09T00:41:14;12.47;;;5.73;;
39772;SDS011;25451;51.960;6.250;2023-10-09T00:43:47;14.00;;;6.30;;
39772;SDS011;25451;51.960;6.250;2023-10-09T00:46:16;14.35;;;6.20;;
39772;SDS011;25451;51.960;6.250;2023-10-09T00:48:49;14.38;;;6.38;;
39772;SDS011;25451;51.960;6.250;2023-10-09T00:51:18;17.25;;;7.03;;
39772;SDS011;25451;51.960;6.250;2023-10-09T00:54:05;14.60;;;6.63;;
39772;SDS011;25451;51.960;6.250;2023-10-09T00:56:38;15.23;;;6.32;;
39772;SDS011;25451;51.960;6.250;2023-10-09T00:59:10;13.93;;;6.45;;
39772;SDS011;25451;51.960;6.250;2023-10-09T01:01:41;14.50;;;6.68;;
39772;SDS011;25451;51.960;6.250;2023-10-09T01:04:15;15.73;;;6.50;;
39772;SDS011;25451;51.960;6.250;2023-10-09T01:06:42;14.40;;;6.10;;
39772;SDS011;25451;51.960;6.250;2023-10-09T01:09:15;14.77;;;6.72;;
39772;SDS011;25451;51.960;6.250;2023-10-09T01:11:47;16.50;;;6.65;;
39772;SDS011;25451;51.960;6.250;2023-10-09T01:14:22;13.60;;;6.13;;
39772;SDS011;25451;51.960;6.250;2023-10-09T01:16:48;16.13;;;6.57;;
39772;SDS011;25451;51.960;6.250;2023-10-09T01:19:13;20.02;;;7.22;;
39772;SDS011;25451;51.960;6.250;2023-10-09T01:21:48;17.40;;;7.75;;
39772;SDS011;25451;51.960;6.250;2023-10-09T01:24:17;17.27;;;7.57;;
39772;SDS011;25451;51.960;6.250;2023-10-09T01:26:45;14.93;;;7.50;;
39772;SDS011;25451;51.960;6.250;2023-10-09T01:29:18;16.65;;;6.82;;
39772;SDS011;25451;51.960;6.250;2023-10-09T01:31:48;18.08;;;7.00;;
39772;SDS011;25451;51.960;6.250;2023-10-09T01:34:24;17.10;;;6.80;;
39772;SDS011;25451;51.960;6.250;2023-10-09T01:37:03;14.50;;;6.45;;
39772;SDS011;25451;51.960;6.250;2023-10-09T01:39:54;17.58;;;7.53;;
39772;SDS011;25451;51.960;6.250;2023-10-09T01:42:33;15.48;;;7.90;;
39772;SDS011;25451;51.960;6.250;2023-10-09T01:45:10;16.55;;;7.35;;
39772;SDS011;25451;51.960;6.250;2023-10-09T01:47:36;19.70;;;8.23;;
39772;SDS011;25451;51.960;6.250;2023-10-09T01:50:03;18.25;;;8.35;;
39772;SDS011;25451;51.960;6.250;2023-10-09T01:52:30;21.50;;;8.90;;
39772;SDS011;25451;51.960;6.250;2023-10-09T01:54:55;20.30;;;8.48;;
39772;SDS011;25451;51.960;6.250;2023-10-09T01:57:28;19.07;;;8.73;;
39772;SDS011;25451;51.960;6.250;2023-10-09T01:59:55;22.80;;;10.20;;
39772;SDS011;25451;51.960;6.250;2023-10-09T02:02:22;19.02;;;8.95;;
39772;SDS011;25451;51.960;6.250;2023-10-09T02:05:12;22.85;;;9.65;;
39772;SDS011;25451;51.960;6.250;2023-10-09T02:07:39;20.80;;;8.73;;
39772;SDS011;25451;51.960;6.250;2023-10-09T02:10:08;22.20;;;9.43;;
39772;SDS011;25451;51.960;6.250;2023-10-09T02:12:47;21.35;;;8.93;;
39772;SDS011;25451;51.960;6.250;2023-10-09T02:15:17;26.17;;;9.80;;
39772;SDS011;25451;51.960;6.250;2023-10-09T02:18:02;24.77;;;9.77;;
39772;SDS011;25451;51.960;6.250;2023-10-09T02:20:41;20.55;;;8.65;;
39772;SDS011;25451;51.960;6.250;2023-10-09T02:23:06;22.73;;;9.20;;
39772;SDS011;25451;51.960;6.250;2023-10-09T02:25:38;20.70;;;8.75;;
39772;SDS011;25451;51.960;6.250;2023-10-09T02:28:09;24.98;;;10.23;;
39772;SDS011;25451;51.960;6.250;2023-10-09T02:30:42;23.25;;;10.30;;
39772;SDS011;25451;51.960;6.250;2023-10-09T02:33:12;23.05;;;9.73;;
39772;SDS011;25451;51.960;6.250;2023-10-09T02:35:45;20.08;;;9.32;;
39772;SDS011;25451;51.960;6.250;2023-10-09T02:38:16;18.73;;;9.52;;
39772;SDS011;25451;51.960;6.250;2023-10-09T02:40:42;22.13;;;9.85;;
39772;SDS011;25451;51.960;6.250;2023-10-09T02:43:26;21.02;;;9.48;;
39772;SDS011;25451;51.960;6.250;2023-10-09T02:45:52;21.40;;;9.23;;
39772;SDS011;25451;51.960;6.250;2023-10-09T02:48:18;23.23;;;10.50;;
39772;SDS011;25451;51.960;6.250;2023-10-09T02:50:45;24.55;;;10.63;;
39772;SDS011;25451;51.960;6.250;2023-10-09T02:53:11;23.55;;;10.38;;
39772;SDS011;25451;51.960;6.250;2023-10-09T02:55:44;19.67;;;9.27;;
39772;SDS011;25451;51.960;6.250;2023-10-09T02:58:27;24.38;;;10.05;;
39772;SDS011;25451;51.960;6.250;2023-10-09T03:00:54;22.83;;;10.55;;
39772;SDS011;25451;51.960;6.250;2023-10-09T03:03:19;21.33;;;9.23;;
39772;SDS011;25451;51.960;6.250;2023-10-09T03:05:46;23.40;;;10.25;;
39772;SDS011;25451;51.960;6.250;2023-10-09T03:08:11;21.20;;;9.17;;
39772;SDS011;25451;51.960;6.250;2023-10-09T03:10:37;20.55;;;8.88;;
39772;SDS011;25451;51.960;6.250;2023-10-09T03:13:04;23.17;;;9.88;;
39772;SDS011;25451;51.960;6.250;2023-10-09T03:15:30;23.13;;;9.52;;
39772;SDS011;25451;51.960;6.250;2023-10-09T03:18:00;21.55;;;10.13;;
39772;SDS011;25451;51.960;6.250;2023-10-09T03:20:27;20.67;;;9.23;;
39772;SDS011;25451;51.960;6.250;2023-10-09T03:22:53;19.30;;;9.47;;
39772;SDS011;25451;51.960;6.250;2023-10-09T03:25:19;20.00;;;9.00;;
39772;SDS011;25451;51.960;6.250;2023-10-09T03:27:44;22.02;;;9.20;;
39772;SDS011;25451;51.960;6.250;2023-10-09T03:30:14;22.40;;;10.03;;
39772;SDS011;25451;51.960;6.250;2023-10-09T03:32:42;18.63;;;9.00;;
39772;SDS011;25451;51.960;6.250;2023-10-09T03:35:09;21.92;;;9.55;;
39772;SDS011;25451;51.960;6.250;2023-10-09T03:37:38;20.42;;;9.13;;
39772;SDS011;25451;51.960;6.250;2023-10-09T03:40:04;18.07;;;9.07;;
39772;SDS011;25451;51.960;6.250;2023-10-09T03:42:32;21.58;;;8.95;;
39772;SDS011;25451;51.960;6.250;2023-10-09T03:45:01;21.13;;;9.50;;
39772;SDS011;25451;51.960;6.250;2023-10-09T03:47:28;16.25;;;8.75;;
39772;SDS011;25451;51.960;6.250;2023-10-09T03:49:54;21.13;;;9.63;;
39772;SDS011;25451;51.960;6.250;2023-10-09T03:52:20;20.33;;;9.15;;
39772;SDS011;25451;51.960;6.250;2023-10-09T03:54:50;20.58;;;10.25;;
39772;SDS011;25451;51.960;6.250;2023-10-09T03:57:15;23.87;;;10.37;;
39772;SDS011;25451;51.960;6.250;2023-10-09T03:59:45;20.33;;;9.50;;
39772;SDS011;25451;51.960;6.250;2023-10-09T04:02:12;20.33;;;10.02;;
39772;SDS011;25451;51.960;6.250;2023-10-09T04:04:38;20.25;;;9.30;;
39772;SDS011;25451;51.960;6.250;2023-10-09T04:07:03;18.73;;;8.90;;
39772;SDS011;25451;51.960;6.250;2023-10-09T04:09:31;19.07;;;9.03;;
39772;SDS011;25451;51.960;6.250;2023-10-09T04:12:04;20.13;;;9.90;;
39772;SDS011;25451;51.960;6.250;2023-10-09T04:14:35;19.60;;;9.23;;
39772;SDS011;25451;51.960;6.250;2023-10-09T04:17:15;19.50;;;8.15;;
39772;SDS011;25451;51.960;6.250;2023-10-09T04:19:49;19.77;;;9.65;;
39772;SDS011;25451;51.960;6.250;2023-10-09T04:22:38;20.90;;;8.83;;
39772;SDS011;25451;51.960;6.250;2023-10-09T04:25:07;19.33;;;9.45;;
39772;SDS011;25451;51.960;6.250;2023-10-09T04:27:39;19.23;;;8.55;;
39772;SDS011;25451;51.960;6.250;2023-10-09T04:30:05;17.98;;;9.07;;
39772;SDS011;25451;51.960;6.250;2023-10-09T04:32:32;18.55;;;8.52;;
39772;SDS011;25451;51.960;6.250;2023-10-09T04:34:59;19.08;;;9.10;;
39772;SDS011;25451;51.960;6.250;2023-10-09T04:37:44;19.13;;;8.52;;
39772;SDS011;25451;51.960;6.250;2023-10-09T04:40:17;17.10;;;8.48;;
39772;SDS011;25451;51.960;6.250;2023-10-09T04:43:01;19.80;;;8.65;;
39772;SDS011;25451;51.960;6.250;2023-10-09T04:45:31;16.17;;;8.00;;
39772;SDS011;25451;51.960;6.250;2023-10-09T04:48:08;18.58;;;8.80;;
39772;SDS011;25451;51.960;6.250;2023-10-09T04:50:35;16.83;;;8.23;;
39772;SDS011;25451;51.960;6.250;2023-10-09T04:53:03;20.92;;;8.98;;
39772;SDS011;25451;51.960;6.250;2023-10-09T04:55:41;17.48;;;8.45;;
39772;SDS011;25451;51.960;6.250;2023-10-09T04:58:09;14.68;;;7.82;;
39772;SDS011;25451;51.960;6.250;2023-10-09T05:00:49;16.50;;;7.55;;
39772;SDS011;25451;51.960;6.250;2023-10-09T05:03:29;21.02;;;8.50;;
39772;SDS011;25451;51.960;6.250;2023-10-09T05:06:04;16.83;;;8.63;;
39772;SDS011;25451;51.960;6.250;2023-10-09T05:08:45;16.80;;;8.25;;
39772;SDS011;25451;51.960;6.250;2023-10-09T05:11:12;16.10;;;8.05;;
39772;SDS011;25451;51.960;6.250;2023-10-09T05:13:59;16.10;;;7.75;;
39772;SDS011;25451;51.960;6.250;2023-10-09T05:16:37;16.95;;;8.30;;
39772;SDS011;25451;51.960;6.250;2023-10-09T05:19:19;16.92;;;8.07;;
39772;SDS011;25451;51.960;6.250;2023-10-09T05:22:03;18.00;;;8.73;;
39772;SDS011;25451;51.960;6.250;2023-10-09T05:24:41;14.68;;;8.43;;
39772;SDS011;25451;51.960;6.250;2023-10-09T05:27:12;14.57;;;7.55;;
39772;SDS011;25451;51.960;6.250;2023-10-09T05:29:57;15.18;;;7.78;;
39772;SDS011;25451;51.960;6.250;2023-10-09T05:32:37;15.52;;;8.15;;
39772;SDS011;25451;51.960;6.250;2023-10-09T05:35:13;15.73;;;7.90;;
39772;SDS011;25451;51.960;6.250;2023-10-09T05:37:41;15.85;;;8.05;;
39772;SDS011;25451;51.960;6.250;2023-10-09T05:40:11;18.38;;;7.85;;
39772;SDS011;25451;51.960;6.250;2023-10-09T05:42:43;16.10;;;8.60;;
39772;SDS011;25451;51.960;6.250;2023-10-09T05:45:11;16.15;;;7.90;;
39772;SDS011;25451;51.960;6.250;2023-10-09T05:47:45;16.30;;;8.77;;
39772;SDS011;25451;51.960;6.250;2023-10-09T05:50:31;15.68;;;8.30;;
39772;SDS011;25451;51.960;6.250;2023-10-09T05:53:02;19.63;;;8.73;;
39772;SDS011;25451;51.960;6.250;2023-10-09T05:55:34;16.15;;;8.60;;
39772;SDS011;25451;51.960;6.250;2023-10-09T05:58:14;17.90;;;8.48;;
39772;SDS011;25451;51.960;6.250;2023-10-09T06:00:58;13.60;;;7.22;;
39772;SDS011;25451;51.960;6.250;2023-10-09T06:03:42;15.43;;;7.50;;
39772;SDS011;25451;51.960;6.250;2023-10-09T06:06:13;16.27;;;7.57;;
39772;SDS011;25451;51.960;6.250;2023-10-09T06:09:08;15.07;;;7.43;;
39772;SDS011;25451;51.960;6.250;2023-10-09T06:11:43;18.42;;;7.35;;
39772;SDS011;25451;51.960;6.250;2023-10-09T06:14:35;13.20;;;6.47;;
39772;SDS011;25451;51.960;6.250;2023-10-09T06:17:01;12.63;;;7.00;;
39772;SDS011;25451;51.960;6.250;2023-10-09T06:19:43;13.02;;;6.68;;
39772;SDS011;25451;51.960;6.250;2023-10-09T06:22:08;15.83;;;7.13;;
39772;SDS011;25451;51.960;6.250;2023-10-09T06:24:37;15.70;;;6.97;;
39772;SDS011;25451;51.960;6.250;2023-10-09T06:27:05;11.65;;;6.50;;
39772;SDS011;25451;51.960;6.250;2023-10-09T06:29:30;16.30;;;7.50;;
39772;SDS011;25451;51.960;6.250;2023-10-09T06:32:03;14.95;;;7.10;;
39772;SDS011;25451;51.960;6.250;2023-10-09T06:34:49;15.65;;;7.25;;
39772;SDS011;25451;51.960;6.250;2023-10-09T06:37:22;14.20;;;7.38;;
39772;SDS011;25451;51.960;6.250;2023-10-09T06:39:55;15.68;;;7.50;;
39772;SDS011;25451;51.960;6.250;2023-10-09T06:42:21;13.27;;;6.83;;
39772;SDS011;25451;51.960;6.250;2023-10-09T06:45:00;14.88;;;6.68;;
39772;SDS011;25451;51.960;6.250;2023-10-09T06:47:30;15.95;;;8.05;;
39772;SDS011;25451;51.960;6.250;2023-10-09T06:50:01;14.68;;;8.15;;
39772;SDS011;25451;51.960;6.250;2023-10-09T06:52:46;18.15;;;8.32;;
39772;SDS011;25451;51.960;6.250;2023-10-09T06:55:35;12.80;;;6.47;;
39772;SDS011;25451;51.960;6.250;2023-10-09T06:58:21;14.25;;;7.05;;
39772;SDS011;25451;51.960;6.250;2023-10-09T07:00:53;18.58;;;8.30;;
39772;SDS011;25451;51.960;6.250;2023-10-09T07:03:38;15.75;;;7.88;;
39772;SDS011;25451;51.960;6.250;2023-10-09T07:06:17;16.10;;;7.85;;
39772;SDS011;25451;51.960;6.250;2023-10-09T07:08:52;15.57;;;7.23;;
39772;SDS011;25451;51.960;6.250;2023-10-09T07:11:37;16.75;;;8.02;;
39772;SDS011;25451;51.960;6.250;2023-10-09T07:16:59;16.42;;;7.50;;
39772;SDS011;25451;51.960;6.250;2023-10-09T07:19:46;19.63;;;8.88;;
39772;SDS011;25451;51.960;6.250;2023-10-09T07:22:12;13.67;;;7.30;;
39772;SDS011;25451;51.960;6.250;2023-10-09T07:27:21;18.70;;;8.98;;
39772;SDS011;25451;51.960;6.250;2023-10-09T07:30:08;15.73;;;7.60;;
39772;SDS011;25451;51.960;6.250;2023-10-09T07:32:54;14.32;;;6.80;;
39772;SDS011;25451;51.960;6.250;2023-10-09T07:35:21;16.75;;;7.25;;
39772;SDS011;25451;51.960;6.250;2023-10-09T07:40:44;15.93;;;7.57;;
39772;SDS011;25451;51.960;6.250;2023-10-09T07:43:44;18.52;;;8.57;;
39772;SDS011;25451;51.960;6.250;2023-10-09T07:46:11;15.13;;;7.47;;
39772;SDS011;25451;51.960;6.250;2023-10-09T07:48:55;18.95;;;8.90;;
39772;SDS011;25451;51.960;6.250;2023-10-09T07:51:22;20.13;;;8.15;;
39772;SDS011;25451;51.960;6.250;2023-10-09T07:53:56;16.48;;;7.80;;
39772;SDS011;25451;51.960;6.250;2023-10-09T07:56:25;20.67;;;8.60;;
39772;SDS011;25451;51.960;6.250;2023-10-09T07:58:55;14.98;;;7.40;;
39772;SDS011;25451;51.960;6.250;2023-10-09T08:01:25;16.90;;;7.85;;
39772;SDS011;25451;51.960;6.250;2023-10-09T08:03:53;15.88;;;7.80;;
39772;SDS011;25451;51.960;6.250;2023-10-09T08:06:23;23.10;;;9.43;;
39772;SDS011;25451;51.960;6.250;2023-10-09T08:09:05;21.40;;;8.82;;
39772;SDS011;25451;51.960;6.250;2023-10-09T08:11:33;16.33;;;8.40;;
39772;SDS011;25451;51.960;6.250;2023-10-09T08:14:04;20.35;;;8.85;;
39772;SDS011;25451;51.960;6.250;2023-10-09T08:16:45;19.23;;;7.57;;
39772;SDS011;25451;51.960;6.250;2023-10-09T08:19:11;17.50;;;8.80;;
39772;SDS011;25451;51.960;6.250;2023-10-09T08:21:57;16.98;;;7.63;;
39772;SDS011;25451;51.960;6.250;2023-10-09T08:24:41;17.23;;;7.72;;
39772;SDS011;25451;51.960;6.250;2023-10-09T08:27:07;14.97;;;7.60;;
39772;SDS011;25451;51.960;6.250;2023-10-09T08:29:53;18.92;;;7.97;;
39772;SDS011;25451;51.960;6.250;2023-10-09T08:32:37;15.10;;;7.95;;
39772;SDS011;25451;51.960;6.250;2023-10-09T08:35:08;17.38;;;7.80;;
39772;SDS011;25451;51.960;6.250;2023-10-09T08:37:52;19.30;;;8.73;;
39772;SDS011;25451;51.960;6.250;2023-10-09T08:40:18;16.57;;;7.53;;
39772;SDS011;25451;51.960;6.250;2023-10-09T08:42:46;17.45;;;8.98;;
39772;SDS011;25451;51.960;6.250;2023-10-09T08:45:21;17.75;;;8.57;;
39772;SDS011;25451;51.960;6.250;2023-10-09T08:47:53;14.48;;;7.40;;
39772;SDS011;25451;51.960;6.250;2023-10-09T08:50:22;17.35;;;8.32;;
39772;SDS011;25451;51.960;6.250;2023-10-09T08:52:48;18.13;;;8.50;;
39772;SDS011;25451;51.960;6.250;2023-10-09T08:55:15;17.52;;;8.68;;
39772;SDS011;25451;51.960;6.250;2023-10-09T08:57:46;19.38;;;9.10;;
39772;SDS011;25451;51.960;6.250;2023-10-09T09:00:18;19.42;;;8.55;;
39772;SDS011;25451;51.960;6.250;2023-10-09T09:02:49;19.17;;;8.63;;
39772;SDS011;25451;51.960;6.250;2023-10-09T09:05:18;17.35;;;9.05;;
39772;SDS011;25451;51.960;6.250;2023-10-09T09:07:48;19.25;;;8.88;;
39772;SDS011;25451;51.960;6.250;2023-10-09T09:10:14;17.58;;;8.23;;
39772;SDS011;25451;51.960;6.250;2023-10-09T09:12:46;15.63;;;7.87;;
39772;SDS011;25451;51.960;6.250;2023-10-09T09:15:18;18.13;;;9.30;;
39772;SDS011;25451;51.960;6.250;2023-10-09T09:17:45;21.88;;;9.80;;
39772;SDS011;25451;51.960;6.250;2023-10-09T09:20:21;17.77;;;8.85;;
39772;SDS011;25451;51.960;6.250;2023-10-09T09:22:51;17.58;;;8.40;;
39772;SDS011;25451;51.960;6.250;2023-10-09T09:25:21;16.50;;;8.83;;
39772;SDS011;25451;51.960;6.250;2023-10-09T09:27:49;16.83;;;8.30;;
39772;SDS011;25451;51.960;6.250;2023-10-09T09:30:28;19.42;;;8.07;;
39772;SDS011;25451;51.960;6.250;2023-10-09T09:36:03;16.08;;;8.27;;
39772;SDS011;25451;51.960;6.250;2023-10-09T09:38:30;18.17;;;8.50;;
39772;SDS011;25451;51.960;6.250;2023-10-09T09:41:11;20.52;;;8.88;;
39772;SDS011;25451;51.960;6.250;2023-10-09T09:43:38;17.67;;;8.63;;
39772;SDS011;25451;51.960;6.250;2023-10-09T09:46:11;19.85;;;9.00;;
39772;SDS011;25451;51.960;6.250;2023-10-09T09:48:37;20.30;;;9.03;;
39772;SDS011;25451;51.960;6.250;2023-10-09T09:51:11;18.75;;;9.20;;
39772;SDS011;25451;51.960;6.250;2023-10-09T09:53:39;17.55;;;9.20;;
39772;SDS011;25451;51.960;6.250;2023-10-09T09:56:05;22.35;;;9.20;;
39772;SDS011;25451;51.960;6.250;2023-10-09T09:58:31;17.10;;;8.23;;
39772;SDS011;25451;51.960;6.250;2023-10-09T10:01:07;16.13;;;7.68;;
39772;SDS011;25451;51.960;6.250;2023-10-09T10:03:58;15.82;;;8.05;;
39772;SDS011;25451;51.960;6.250;2023-10-09T10:06:29;17.10;;;8.57;;
39772;SDS011;25451;51.960;6.250;2023-10-09T10:08:57;18.70;;;8.43;;
39772;SDS011;25451;51.960;6.250;2023-10-09T10:11:46;15.55;;;8.48;;
39772;SDS011;25451;51.960;6.250;2023-10-09T10:14:14;18.02;;;8.57;;
39772;SDS011;25451;51.960;6.250;2023-10-09T10:22:24;16.93;;;7.90;;
39772;SDS011;25451;51.960;6.250;2023-10-09T10:24:55;18.13;;;7.88;;
39772;SDS011;25451;51.960;6.250;2023-10-09T10:27:27;15.75;;;7.25;;
39772;SDS011;25451;51.960;6.250;2023-10-09T10:32:55;17.27;;;7.75;;
39772;SDS011;25451;51.960;6.250;2023-10-09T10:35:22;13.80;;;7.07;;
39772;SDS011;25451;51.960;6.250;2023-10-09T10:38:21;17.02;;;7.70;;
39772;SDS011;25451;51.960;6.250;2023-10-09T10:40:47;17.02;;;7.63;;
39772;SDS011;25451;51.960;6.250;2023-10-09T10:43:22;14.88;;;7.40;;
39772;SDS011;25451;51.960;6.250;2023-10-09T10:46:12;17.15;;;7.13;;
39772;SDS011;25451;51.960;6.250;2023-10-09T10:48:49;14.67;;;6.67;;
39772;SDS011;25451;51.960;6.250;2023-10-09T10:51:27;16.25;;;7.45;;
39772;SDS011;25451;51.960;6.250;2023-10-09T10:54:06;14.57;;;7.20;;
39772;SDS011;25451;51.960;6.250;2023-10-09T10:56:53;16.05;;;7.25;;
39772;SDS011;25451;51.960;6.250;2023-10-09T10:59:22;14.77;;;7.00;;
39772;SDS011;25451;51.960;6.250;2023-10-09T11:01:49;14.10;;;7.07;;
39772;SDS011;25451;51.960;6.250;2023-10-09T11:04:22;17.40;;;7.80;;
39772;SDS011;25451;51.960;6.250;2023-10-09T11:06:54;15.13;;;7.70;;
39772;SDS011;25451;51.960;6.250;2023-10-09T11:12:31;16.08;;;7.20;;
39772;SDS011;25451;51.960;6.250;2023-10-09T11:15:10;17.07;;;7.17;;
39772;SDS011;25451;51.960;6.250;2023-10-09T11:20:35;15.00;;;7.28;;
39772;SDS011;25451;51.960;6.250;2023-10-09T11:23:03;14.20;;;6.65;;
39772;SDS011;25451;51.960;6.250;2023-10-09T11:25:35;14.70;;;6.57;;
39772;SDS011;25451;51.960;6.250;2023-10-09T11:28:02;14.53;;;6.30;;
39772;SDS011;25451;51.960;6.250;2023-10-09T11:30:48;13.02;;;6.32;;
39772;SDS011;25451;51.960;6.250;2023-10-09T11:33:20;13.70;;;6.07;;
39772;SDS011;25451;51.960;6.250;2023-10-09T11:35:56;11.77;;;5.78;;
39772;SDS011;25451;51.960;6.250;2023-10-09T11:38:22;14.75;;;6.60;;
39772;SDS011;25451;51.960;6.250;2023-10-09T11:40:49;11.67;;;5.40;;
39772;SDS011;25451;51.960;6.250;2023-10-09T11:43:44;13.43;;;6.20;;
39772;SDS011;25451;51.960;6.250;2023-10-09T11:46:17;12.27;;;6.18;;
39772;SDS011;25451;51.960;6.250;2023-10-09T11:49:09;15.23;;;5.68;;
39772;SDS011;25451;51.960;6.250;2023-10-09T11:51:40;12.20;;;5.78;;
39772;SDS011;25451;51.960;6.250;2023-10-09T11:54:29;14.17;;;5.70;;
39772;SDS011;25451;51.960;6.250;2023-10-09T11:56:56;13.50;;;5.72;;
39772;SDS011;25451;51.960;6.250;2023-10-09T11:59:22;14.33;;;5.60;;
39772;SDS011;25451;51.960;6.250;2023-10-09T12:01:48;12.85;;;5.82;;
39772;SDS011;25451;51.960;6.250;2023-10-09T12:04:17;12.80;;;6.10;;
39772;SDS011;25451;51.960;6.250;2023-10-09T12:06:44;13.02;;;5.88;;
39772;SDS011;25451;51.960;6.250;2023-10-09T12:09:09;12.27;;;5.80;;
39772;SDS011;25451;51.960;6.250;2023-10-09T12:11:41;11.70;;;5.38;;
39772;SDS011;25451;51.960;6.250;2023-10-09T12:14:07;16.17;;;5.87;;
39772;SDS011;25451;51.960;6.250;2023-10-09T12:16:32;14.73;;;5.33;;
39772;SDS011;25451;51.960;6.250;2023-10-09T12:18:58;14.38;;;5.15;;
39772;SDS011;25451;51.960;6.250;2023-10-09T12:21:24;11.43;;;4.78;;
39772;SDS011;25451;51.960;6.250;2023-10-09T12:23:52;14.98;;;4.88;;
39772;SDS011;25451;51.960;6.250;2023-10-09T12:26:22;13.60;;;5.70;;
39772;SDS011;25451;51.960;6.250;2023-10-09T12:28:47;12.03;;;4.93;;
39772;SDS011;25451;51.960;6.250;2023-10-09T12:31:15;11.32;;;4.43;;
39772;SDS011;25451;51.960;6.250;2023-10-09T12:33:41;11.23;;;5.03;;
39772;SDS011;25451;51.960;6.250;2023-10-09T12:36:11;11.80;;;5.13;;
39772;SDS011;25451;51.960;6.250;2023-10-09T12:38:44;13.57;;;4.60;;
39772;SDS011;25451;51.960;6.250;2023-10-09T12:41:15;8.75;;;4.60;;
39772;SDS011;25451;51.960;6.250;2023-10-09T12:44:00;10.90;;;4.43;;
39772;SDS011;25451;51.960;6.250;2023-10-09T12:46:26;8.73;;;4.05;;
39772;SDS011;25451;51.960;6.250;2023-10-09T12:48:52;13.10;;;4.85;;
39772;SDS011;25451;51.960;6.250;2023-10-09T12:51:19;11.50;;;4.70;;
39772;SDS011;25451;51.960;6.250;2023-10-09T12:53:45;12.07;;;4.32;;
39772;SDS011;25451;51.960;6.250;2023-10-09T12:56:13;9.93;;;4.55;;
39772;SDS011;25451;51.960;6.250;2023-10-09T12:58:41;10.07;;;4.32;;
39772;SDS011;25451;51.960;6.250;2023-10-09T13:01:17;9.10;;;4.18;;
39772;SDS011;25451;51.960;6.250;2023-10-09T13:03:45;10.07;;;4.40;;
39772;SDS011;25451;51.960;6.250;2023-10-09T13:06:14;11.68;;;4.50;;
39772;SDS011;25451;51.960;6.250;2023-10-09T13:08:40;12.40;;;4.32;;
39772;SDS011;25451;51.960;6.250;2023-10-09T13:11:08;12.85;;;4.18;;
39772;SDS011;25451;51.960;6.250;2023-10-09T13:13:41;10.07;;;4.13;;
39772;SDS011;25451;51.960;6.250;2023-10-09T13:16:17;12.45;;;4.70;;
39772;SDS011;25451;51.960;6.250;2023-10-09T13:18:50;8.27;;;3.83;;
39772;SDS011;25451;51.960;6.250;2023-10-09T13:21:20;8.15;;;3.60;;
39772;SDS011;25451;51.960;6.250;2023-10-09T13:23:51;9.55;;;4.40;;
39772;SDS011;25451;51.960;6.250;2023-10-09T13:26:19;9.68;;;3.75;;
39772;SDS011;25451;51.960;6.250;2023-10-09T13:28:56;9.55;;;4.28;;
39772;SDS011;25451;51.960;6.250;2023-10-09T13:31:22;9.75;;;4.00;;
39772;SDS011;25451;51.960;6.250;2023-10-09T13:33:55;9.15;;;3.90;;
39772;SDS011;25451;51.960;6.250;2023-10-09T13:36:24;9.88;;;3.85;;
39772;SDS011;25451;51.960;6.250;2023-10-09T13:39:06;8.35;;;3.60;;
39772;SDS011;25451;51.960;6.250;2023-10-09T13:41:44;9.45;;;3.60;;
39772;SDS011;25451;51.960;6.250;2023-10-09T13:44:09;8.57;;;4.10;;
39772;SDS011;25451;51.960;6.250;2023-10-09T13:46:35;9.50;;;3.43;;
39772;SDS011;25451;51.960;6.250;2023-10-09T13:49:06;8.75;;;3.70;;
39772;SDS011;25451;51.960;6.250;2023-10-09T13:51:43;8.88;;;3.30;;
39772;SDS011;25451;51.960;6.250;2023-10-09T13:54:12;9.55;;;3.35;;
39772;SDS011;25451;51.960;6.250;2023-10-09T13:56:46;9.38;;;3.60;;
39772;SDS011;25451;51.960;6.250;2023-10-09T13:59:12;8.77;;;3.30;;
39772;SDS011;25451;51.960;6.250;2023-10-09T14:01:38;10.63;;;3.57;;
39772;SDS011;25451;51.960;6.250;2023-10-09T14:04:04;13.52;;;4.13;;
39772;SDS011;25451;51.960;6.250;2023-10-09T14:06:33;11.80;;;3.42;;
39772;SDS011;25451;51.960;6.250;2023-10-09T14:08:59;12.07;;;3.78;;
39772;SDS011;25451;51.960;6.250;2023-10-09T14:11:34;8.70;;;3.47;;
39772;SDS011;25451;51.960;6.250;2023-10-09T14:14:04;12.02;;;3.50;;
39772;SDS011;25451;51.960;6.250;2023-10-09T14:16:38;11.38;;;3.67;;
39772;SDS011;25451;51.960;6.250;2023-10-09T14:19:08;10.57;;;3.42;;
39772;SDS011;25451;51.960;6.250;2023-10-09T14:21:37;9.57;;;3.60;;
39772;SDS011;25451;51.960;6.250;2023-10-09T14:24:05;9.40;;;3.53;;
39772;SDS011;25451;51.960;6.250;2023-10-09T14:26:40;7.15;;;2.95;;
39772;SDS011;25451;51.960;6.250;2023-10-09T14:29:06;9.98;;;3.50;;
39772;SDS011;25451;51.960;6.250;2023-10-09T14:31:32;10.52;;;3.50;;
39772;SDS011;25451;51.960;6.250;2023-10-09T14:34:04;10.27;;;3.30;;
39772;SDS011;25451;51.960;6.250;2023-10-09T14:36:30;9.27;;;3.50;;
39772;SDS011;25451;51.960;6.250;2023-10-09T14:38:59;9.77;;;3.55;;
39772;SDS011;25451;51.960;6.250;2023-10-09T14:41:25;11.40;;;3.80;;
39772;SDS011;25451;51.960;6.250;2023-10-09T14:43:52;7.82;;;3.58;;
39772;SDS011;25451;51.960;6.250;2023-10-09T14:46:17;10.40;;;3.67;;
39772;SDS011;25451;51.960;6.250;2023-10-09T14:48:48;10.13;;;3.83;;
39772;SDS011;25451;51.960;6.250;2023-10-09T14:51:14;8.37;;;3.70;;
39772;SDS011;25451;51.960;6.250;2023-10-09T14:53:39;10.07;;;3.75;;
39772;SDS011;25451;51.960;6.250;2023-10-09T14:56:05;7.53;;;3.92;;
39772;SDS011;25451;51.960;6.250;2023-10-09T14:58:34;8.50;;;3.70;;
39772;SDS011;25451;51.960;6.250;2023-10-09T15:01:12;10.77;;;3.70;;
39772;SDS011;25451;51.960;6.250;2023-10-09T15:03:40;10.35;;;3.75;;
39772;SDS011;25451;51.960;6.250;2023-10-09T15:06:07;10.95;;;3.58;;
39772;SDS011;25451;51.960;6.250;2023-10-09T15:08:35;10.13;;;3.58;;
39772;SDS011;25451;51.960;6.250;2023-10-09T15:11:01;8.90;;;3.63;;
39772;SDS011;25451;51.960;6.250;2023-10-09T15:13:26;10.10;;;3.87;;
39772;SDS011;25451;51.960;6.250;2023-10-09T15:15:53;8.18;;;3.80;;
39772;SDS011;25451;51.960;6.250;2023-10-09T15:18:20;10.75;;;3.60;;
39772;SDS011;25451;51.960;6.250;2023-10-09T15:20:46;8.60;;;3.38;;
39772;SDS011;25451;51.960;6.250;2023-10-09T15:23:12;9.30;;;3.70;;
39772;SDS011;25451;51.960;6.250;2023-10-09T15:25:37;9.27;;;3.60;;
39772;SDS011;25451;51.960;6.250;2023-10-09T15:28:04;8.50;;;3.65;;
39772;SDS011;25451;51.960;6.250;2023-10-09T15:30:32;8.68;;;3.70;;